createdAt,value
2023-03-31T00:02:13.499Z,7.35
2023-03-31T00:04:46.483Z,7.25
2023-03-31T00:07:22.196Z,7.23
2023-03-31T00:10:03.614Z,7.23
2023-03-31T00:12:37.189Z,7.16
2023-03-31T00:15:07.371Z,7.18
2023-03-31T00:17:36.741Z,7.38
2023-03-31T00:20:09.133Z,7.41
2023-03-31T00:22:42.469Z,7.35
2023-03-31T00:25:11.882Z,7.27
2023-03-31T00:27:44.278Z,7.51
2023-03-31T00:30:15.746Z,7.45
2023-03-31T00:32:44.809Z,7.20
2023-03-31T00:35:14.073Z,6.74
2023-03-31T00:37:46.046Z,6.80
2023-03-31T00:40:15.357Z,6.63
2023-03-31T00:42:46.501Z,6.64
2023-03-31T00:45:29.167Z,6.87
2023-03-31T00:48:10.522Z,6.94
2023-03-31T00:50:51.432Z,6.79
2023-03-31T00:53:26.340Z,6.54
2023-03-31T00:56:00.370Z,6.68
2023-03-31T00:58:29.342Z,6.48
2023-03-31T01:01:00.202Z,6.83
2023-03-31T01:03:30.687Z,6.78
2023-03-31T01:06:03.857Z,6.82
2023-03-31T01:08:36.714Z,6.66
2023-03-31T01:11:10.130Z,6.47
2023-03-31T01:13:41.688Z,6.83
2023-03-31T01:16:11.546Z,6.79
2023-03-31T01:18:40.931Z,6.68
2023-03-31T01:21:45.651Z,6.77
2023-03-31T01:24:50.033Z,6.67
2023-03-31T01:27:44.409Z,6.62
2023-03-31T01:31:04.728Z,6.54
2023-03-31T01:34:10.498Z,6.92
2023-03-31T01:37:19.141Z,6.68
2023-03-31T01:40:25.831Z,6.62
2023-03-31T01:43:00.432Z,6.70
2023-03-31T01:45:40.992Z,6.56
2023-03-31T01:48:14.846Z,6.60
2023-03-31T01:50:48.405Z,6.46
2023-03-31T01:53:25.365Z,6.62
2023-03-31T01:56:03.613Z,6.28
2023-03-31T01:58:37.080Z,6.43
2023-03-31T02:01:13.943Z,6.33
2023-03-31T02:03:51.217Z,6.44
2023-03-31T02:06:25.148Z,6.69
2023-03-31T02:08:59.748Z,6.57
2023-03-31T02:11:33.687Z,6.42
2023-03-31T02:14:06.013Z,6.15
2023-03-31T02:16:42.079Z,6.51
2023-03-31T02:19:14.156Z,6.58
2023-03-31T02:21:43.960Z,6.48
2023-03-31T02:24:16.170Z,6.33
2023-03-31T02:26:56.550Z,6.51
2023-03-31T02:29:26.395Z,6.72
2023-03-31T02:32:02.486Z,6.60
2023-03-31T02:34:32.252Z,6.81
2023-03-31T02:37:01.507Z,6.79
2023-03-31T02:39:34.707Z,6.29
2023-03-31T02:42:08.156Z,6.90
2023-03-31T02:44:38.285Z,6.80
2023-03-31T02:47:20.627Z,6.30
2023-03-31T02:49:52.773Z,6.20
2023-03-31T02:52:47.903Z,6.80
2023-03-31T02:55:37.809Z,6.59
2023-03-31T02:58:43.614Z,6.97
2023-03-31T03:01:45.179Z,6.67
2023-03-31T03:04:35.334Z,6.63
2023-03-31T03:07:13.122Z,6.52
2023-03-31T03:09:53.557Z,6.53
2023-03-31T03:12:26.956Z,6.21
2023-03-31T03:15:03.840Z,6.42
2023-03-31T03:17:39.456Z,6.80
2023-03-31T03:20:10.728Z,6.66
2023-03-31T03:22:41.250Z,6.92
2023-03-31T03:25:13.043Z,6.93
2023-03-31T03:27:42.292Z,6.55
2023-03-31T03:30:15.456Z,6.19
2023-03-31T03:32:44.552Z,6.59
2023-03-31T03:35:13.598Z,6.32
2023-03-31T03:37:43.115Z,6.51
2023-03-31T03:40:12.852Z,6.69
2023-03-31T03:42:41.935Z,6.71
2023-03-31T03:45:15.085Z,6.82
2023-03-31T03:47:44.359Z,6.95
2023-03-31T03:50:16.196Z,6.93
2023-03-31T03:52:45.900Z,6.96
2023-03-31T03:55:20.113Z,6.76
2023-03-31T03:57:49.337Z,6.90
2023-03-31T04:00:20.381Z,6.81
2023-03-31T04:02:49.446Z,7.03
2023-03-31T04:05:19.244Z,6.98
2023-03-31T04:07:51.207Z,7.11
2023-03-31T04:10:20.749Z,6.67
2023-03-31T04:12:49.887Z,7.00
2023-03-31T04:15:20.750Z,7.05
2023-03-31T04:17:51.119Z,6.52
2023-03-31T04:20:21.599Z,6.54
2023-03-31T04:22:50.782Z,6.79
2023-03-31T04:25:19.942Z,6.93
2023-03-31T04:27:54.946Z,6.89
2023-03-31T04:30:31.103Z,6.98
2023-03-31T04:33:04.361Z,7.02
2023-03-31T04:35:49.825Z,6.89
2023-03-31T04:38:19.914Z,6.87
2023-03-31T04:40:54.606Z,6.84
2023-03-31T04:43:24.123Z,7.19
2023-03-31T04:45:57.205Z,7.13
2023-03-31T04:48:27.533Z,7.23
2023-03-31T04:50:56.751Z,7.35
2023-03-31T04:53:26.220Z,7.32
2023-03-31T04:55:57.574Z,7.18
2023-03-31T04:58:28.912Z,7.38
2023-03-31T05:00:59.208Z,7.26
2023-03-31T05:03:36.649Z,7.46
2023-03-31T05:06:06.601Z,6.97
2023-03-31T05:08:35.781Z,7.16
2023-03-31T05:11:06.927Z,6.95
2023-03-31T05:13:36.093Z,7.10
2023-03-31T05:16:12.420Z,6.71
2023-03-31T05:18:41.851Z,7.14
2023-03-31T05:21:16.106Z,6.75
2023-03-31T05:23:47.693Z,7.00
2023-03-31T05:26:18.039Z,6.67
2023-03-31T05:28:47.650Z,5.81
2023-03-31T05:31:19.571Z,7.01
2023-03-31T05:33:52.072Z,7.13
2023-03-31T05:36:24.319Z,7.03
2023-03-31T05:38:55.720Z,7.46
2023-03-31T05:41:28.158Z,6.94
2023-03-31T05:43:57.563Z,7.15
2023-03-31T05:46:28.337Z,7.13
2023-03-31T05:48:58.870Z,6.69
2023-03-31T05:51:28.906Z,7.44
2023-03-31T05:53:58.556Z,7.72
2023-03-31T05:56:27.884Z,7.21
2023-03-31T05:59:05.240Z,7.20
2023-03-31T06:01:40.589Z,7.51
2023-03-31T06:04:09.799Z,7.65
2023-03-31T06:06:39.684Z,6.90
2023-03-31T06:09:09.222Z,7.86
2023-03-31T06:11:41.309Z,7.45
2023-03-31T06:14:10.884Z,7.26
2023-03-31T06:16:41.568Z,7.87
2023-03-31T06:19:11.076Z,8.06
2023-03-31T06:21:40.053Z,8.19
2023-03-31T06:24:14.670Z,7.94
2023-03-31T06:26:43.820Z,8.21
2023-03-31T06:29:13.335Z,8.50
2023-03-31T06:31:46.430Z,8.87
2023-03-31T06:34:17.306Z,9.28
2023-03-31T06:36:48.981Z,9.27
2023-03-31T06:39:18.569Z,9.29
2023-03-31T06:41:50.592Z,9.28
2023-03-31T06:44:30.033Z,9.16
2023-03-31T06:47:00.870Z,9.09
2023-03-31T06:49:30.552Z,9.43
2023-03-31T06:52:00.494Z,8.97
2023-03-31T06:54:30.200Z,9.33
2023-03-31T06:57:00.930Z,9.91
2023-03-31T06:59:30.735Z,9.33
2023-03-31T07:02:01.240Z,10.01
2023-03-31T07:04:30.713Z,10.34
2023-03-31T07:07:00.335Z,10.65
2023-03-31T07:09:29.717Z,10.97
2023-03-31T07:11:59.123Z,11.03
2023-03-31T07:14:28.600Z,10.71
2023-03-31T07:16:58.030Z,10.87
2023-03-31T07:19:28.568Z,10.97
2023-03-31T07:22:00.037Z,10.76
2023-03-31T07:24:30.530Z,11.17
2023-03-31T07:27:00.838Z,11.65
2023-03-31T07:29:29.936Z,11.34
2023-03-31T07:31:59.416Z,11.55
2023-03-31T07:34:34.986Z,10.99
2023-03-31T07:37:06.322Z,11.51
2023-03-31T07:39:40.649Z,11.32
2023-03-31T07:42:10.035Z,11.61
2023-03-31T07:44:39.854Z,11.42
2023-03-31T07:47:08.820Z,11.39
2023-03-31T07:49:41.181Z,11.27
2023-03-31T07:52:10.587Z,10.98
2023-03-31T07:54:40.087Z,11.57
2023-03-31T07:57:10.322Z,11.69
2023-03-31T07:59:39.809Z,11.57
2023-03-31T08:02:09.066Z,11.29
2023-03-31T08:04:42.224Z,11.80
2023-03-31T08:07:20.858Z,11.40
2023-03-31T08:09:51.367Z,12.00
2023-03-31T08:12:20.545Z,12.01
2023-03-31T08:14:49.437Z,11.59
2023-03-31T08:17:18.829Z,11.96
2023-03-31T08:19:50.310Z,12.01
2023-03-31T08:22:19.877Z,11.65
2023-03-31T08:24:49.211Z,11.57
2023-03-31T08:27:18.812Z,11.52
2023-03-31T08:29:48.406Z,11.29
2023-03-31T08:32:17.453Z,11.52
2023-03-31T08:34:46.632Z,11.66
2023-03-31T08:37:17.331Z,11.38
2023-03-31T08:39:46.759Z,11.59
2023-03-31T08:42:23.318Z,11.53
2023-03-31T08:44:59.746Z,11.62
2023-03-31T08:47:33.095Z,11.40
2023-03-31T08:50:08.024Z,11.94
2023-03-31T08:52:44.198Z,11.50
2023-03-31T08:55:19.367Z,11.27
2023-03-31T08:57:57.045Z,11.62
2023-03-31T09:00:27.353Z,12.09
2023-03-31T09:03:03.698Z,11.66
2023-03-31T09:05:59.560Z,11.24
2023-03-31T09:08:39.709Z,11.89
2023-03-31T09:11:16.558Z,11.95
2023-03-31T09:14:12.128Z,12.16
2023-03-31T09:16:49.635Z,12.46
2023-03-31T09:19:22.460Z,12.27
2023-03-31T09:21:55.563Z,12.44
2023-03-31T09:24:33.092Z,11.10
2023-03-31T09:27:07.435Z,11.64
2023-03-31T09:29:43.654Z,11.74
2023-03-31T09:32:17.574Z,12.80
2023-03-31T09:34:48.429Z,12.30
2023-03-31T09:37:18.034Z,12.53
2023-03-31T09:39:48.791Z,12.05
2023-03-31T09:42:19.363Z,12.22
2023-03-31T09:44:51.342Z,12.46
2023-03-31T09:47:28.115Z,11.93
2023-03-31T09:49:58.635Z,12.73
2023-03-31T09:52:32.884Z,12.61
2023-03-31T09:55:38.407Z,12.71
2023-03-31T09:58:16.878Z,12.66
2023-03-31T10:00:59.696Z,13.03
2023-03-31T10:03:37.052Z,12.55
2023-03-31T10:06:11.867Z,12.93
2023-03-31T10:08:43.986Z,13.25
2023-03-31T10:11:15.706Z,13.15
2023-03-31T10:13:50.852Z,13.18
2023-03-31T10:16:25.185Z,13.33
2023-03-31T10:19:13.950Z,13.56
2023-03-31T10:21:48.887Z,13.49
2023-03-31T10:24:21.882Z,13.64
2023-03-31T10:26:56.662Z,13.57
2023-03-31T10:29:34.023Z,13.67
2023-03-31T10:32:10.264Z,14.03
2023-03-31T10:34:46.460Z,13.58
2023-03-31T10:37:20.739Z,13.47
2023-03-31T10:40:04.104Z,13.64
2023-03-31T10:42:40.324Z,14.03
2023-03-31T10:45:20.580Z,14.02
2023-03-31T10:48:02.067Z,13.62
2023-03-31T10:50:34.740Z,13.63
2023-03-31T10:53:06.698Z,13.65
2023-03-31T10:55:41.131Z,13.92
2023-03-31T10:58:38.932Z,13.07
2023-03-31T11:01:22.803Z,13.52
2023-03-31T11:04:19.856Z,14.04
2023-03-31T11:06:59.828Z,14.43
2023-03-31T11:09:52.039Z,14.02
2023-03-31T11:12:31.308Z,13.79
2023-03-31T11:15:13.443Z,13.94
2023-03-31T11:18:00.664Z,12.97
2023-03-31T11:20:37.508Z,12.98
2023-03-31T11:23:22.454Z,14.28
2023-03-31T11:26:05.484Z,14.75
2023-03-31T11:28:51.501Z,15.31
2023-03-31T11:31:34.410Z,15.17
2023-03-31T11:34:37.044Z,14.55
2023-03-31T11:37:21.517Z,15.78
2023-03-31T11:44:06.064Z,16.07
2023-03-31T11:46:42.658Z,14.78
2023-03-31T11:49:21.566Z,14.96
2023-03-31T11:52:06.497Z,15.68
2023-03-31T11:54:38.890Z,14.07
2023-03-31T11:57:15.610Z,13.79
2023-03-31T11:59:48.750Z,13.86
2023-03-31T12:02:46.172Z,13.06
2023-03-31T12:05:19.209Z,11.47
2023-03-31T12:07:58.153Z,12.11
2023-03-31T12:10:37.889Z,13.19
2023-03-31T12:13:29.581Z,13.56
2023-03-31T12:16:06.030Z,14.17
2023-03-31T12:18:43.353Z,13.40
2023-03-31T12:21:13.427Z,13.87
2023-03-31T12:23:50.897Z,13.55
2023-03-31T12:27:03.446Z,14.04
2023-03-31T12:29:38.762Z,13.41
2023-03-31T12:32:21.671Z,12.20
2023-03-31T12:35:04.099Z,12.05
2023-03-31T12:38:11.897Z,12.52
2023-03-31T12:41:02.862Z,13.27
2023-03-31T12:44:03.844Z,13.26
2023-03-31T12:47:03.814Z,11.85
2023-03-31T12:49:54.167Z,12.30
2023-03-31T12:52:34.625Z,11.53
2023-03-31T12:55:31.024Z,12.43
2023-03-31T12:58:37.403Z,12.34
2023-03-31T13:01:11.310Z,12.87
2023-03-31T13:03:50.622Z,12.75
2023-03-31T13:06:57.568Z,12.08
2023-03-31T13:09:54.206Z,12.41
2023-03-31T13:12:28.327Z,12.61
2023-03-31T13:15:00.636Z,12.62
2023-03-31T13:17:32.904Z,13.29
2023-03-31T13:20:19.357Z,12.83
2023-03-31T13:22:49.458Z,13.31
2023-03-31T13:25:39.904Z,13.45
2023-03-31T13:28:19.947Z,13.04
2023-03-31T13:30:52.357Z,12.49
2023-03-31T13:33:26.643Z,12.58
2023-03-31T13:36:15.556Z,12.24
2023-03-31T13:38:54.449Z,12.17
2023-03-31T13:41:43.373Z,11.90
2023-03-31T13:44:38.315Z,11.77
2023-03-31T13:47:37.212Z,11.71
2023-03-31T13:50:39.800Z,11.94
2023-03-31T13:53:25.136Z,11.75
2023-03-31T13:56:21.910Z,12.02
2023-03-31T13:59:21.254Z,11.97
2023-03-31T14:02:15.867Z,11.73
2023-03-31T14:05:10.507Z,11.62
2023-03-31T14:07:45.633Z,12.23
2023-03-31T14:10:26.489Z,12.36
2023-03-31T14:13:07.285Z,11.49
2023-03-31T14:15:40.453Z,11.15
2023-03-31T14:18:13.970Z,11.45
2023-03-31T14:20:48.388Z,11.04
2023-03-31T14:23:35.750Z,11.26
2023-03-31T14:26:08.997Z,11.29
2023-03-31T14:29:03.848Z,10.87
2023-03-31T14:31:40.624Z,11.06
2023-03-31T14:34:25.042Z,10.41
2023-03-31T14:37:00.953Z,11.48
2023-03-31T14:39:38.317Z,11.02
2023-03-31T14:42:13.733Z,10.82
2023-03-31T14:44:46.341Z,10.95
2023-03-31T14:47:23.155Z,10.53
2023-03-31T14:50:02.288Z,10.31
2023-03-31T14:52:33.734Z,10.50
2023-03-31T14:55:03.262Z,10.40
2023-03-31T14:57:36.308Z,10.12
2023-03-31T15:00:09.173Z,10.17
2023-03-31T15:02:43.700Z,10.17
2023-03-31T15:05:24.913Z,10.02
2023-03-31T15:07:59.037Z,10.16
2023-03-31T15:10:34.678Z,10.48
2023-03-31T15:13:09.123Z,10.11
2023-03-31T15:15:38.957Z,9.74
2023-03-31T15:18:13.219Z,9.69
2023-03-31T15:20:43.727Z,9.36
2023-03-31T15:23:25.060Z,9.45
2023-03-31T15:25:58.488Z,9.37
2023-03-31T15:28:34.420Z,9.36
2023-03-31T15:31:10.209Z,9.41
2023-03-31T15:33:42.525Z,9.55
2023-03-31T15:36:13.755Z,9.64
2023-03-31T15:38:43.750Z,9.46
2023-03-31T15:41:23.414Z,9.39
2023-03-31T15:44:06.788Z,9.40
2023-03-31T15:46:59.280Z,9.57
2023-03-31T15:49:31.408Z,9.25
2023-03-31T15:52:03.380Z,9.34
2023-03-31T15:54:38.521Z,9.40
2023-03-31T15:57:09.948Z,9.44
2023-03-31T15:59:55.571Z,9.36
2023-03-31T16:02:28.921Z,9.18
2023-03-31T16:05:08.063Z,9.59
2023-03-31T16:07:47.429Z,9.56
2023-03-31T16:10:34.930Z,9.37
2023-03-31T16:13:16.405Z,9.09
2023-03-31T16:15:49.566Z,9.12
2023-03-31T16:18:29.191Z,9.56
2023-03-31T16:21:07.083Z,9.89
2023-03-31T16:23:44.550Z,9.79
2023-03-31T16:26:14.471Z,9.56
2023-03-31T16:28:51.678Z,9.65
2023-03-31T16:31:32.596Z,9.78
2023-03-31T16:34:03.700Z,9.54
2023-03-31T16:36:35.655Z,9.72
2023-03-31T16:39:09.170Z,9.91
2023-03-31T16:41:39.391Z,9.91
2023-03-31T16:44:08.918Z,9.93
2023-03-31T16:46:38.081Z,9.78
2023-03-31T16:49:07.528Z,9.93
2023-03-31T16:51:37.969Z,9.99
2023-03-31T16:54:08.065Z,10.09
2023-03-31T16:56:37.395Z,10.08
2023-03-31T16:59:23.525Z,10.19
2023-03-31T17:01:54.684Z,9.91
2023-03-31T17:04:25.420Z,9.75
2023-03-31T17:06:59.125Z,10.24
2023-03-31T17:09:28.798Z,10.20
2023-03-31T17:11:57.700Z,9.89
2023-03-31T17:14:29.225Z,9.63
2023-03-31T17:17:02.259Z,9.37
2023-03-31T17:19:39.892Z,10.19
2023-03-31T17:22:10.865Z,10.17
2023-03-31T17:24:40.705Z,9.81
2023-03-31T17:27:09.862Z,9.68
2023-03-31T17:29:39.571Z,9.84
2023-03-31T17:32:10.227Z,9.71
2023-03-31T17:34:42.753Z,9.36
2023-03-31T17:37:16.919Z,9.37
2023-03-31T17:39:46.789Z,9.80
2023-03-31T17:42:16.811Z,9.96
2023-03-31T17:44:48.500Z,10.02
2023-03-31T17:47:19.062Z,9.43
2023-03-31T17:49:48.151Z,9.82
2023-03-31T17:52:18.930Z,9.62
2023-03-31T17:54:50.306Z,9.71
2023-03-31T17:57:20.744Z,9.72
2023-03-31T17:59:50.606Z,9.18
2023-03-31T18:02:21.009Z,8.51
2023-03-31T18:04:51.422Z,10.00
2023-03-31T18:07:23.515Z,8.80
2023-03-31T18:09:52.988Z,9.38
2023-03-31T18:12:22.083Z,9.80
2023-03-31T18:14:51.909Z,9.86
2023-03-31T18:17:21.232Z,9.73
2023-03-31T18:19:50.802Z,9.67
2023-03-31T18:22:21.635Z,9.40
2023-03-31T18:24:51.595Z,9.69
2023-03-31T18:27:23.180Z,9.74
2023-03-31T18:29:56.805Z,8.61
2023-03-31T18:32:29.058Z,10.13
2023-03-31T18:35:01.158Z,9.34
2023-03-31T18:37:32.022Z,9.75
2023-03-31T18:40:02.699Z,9.32
2023-03-31T18:42:33.392Z,9.45
2023-03-31T18:45:08.921Z,9.34
2023-03-31T18:47:38.563Z,9.78
2023-03-31T18:50:10.766Z,9.23
2023-03-31T18:52:44.563Z,9.37
2023-03-31T18:55:14.769Z,9.72
2023-03-31T18:57:45.576Z,8.74
2023-03-31T19:00:16.748Z,10.14
2023-03-31T19:02:47.053Z,9.82
2023-03-31T19:05:19.239Z,9.47
2023-03-31T19:07:50.181Z,10.17
2023-03-31T19:10:20.865Z,9.60
2023-03-31T19:12:55.162Z,10.00
2023-03-31T19:15:54.404Z,9.79
2023-03-31T19:18:21.971Z,9.14
2023-03-31T19:20:52.040Z,9.92
2023-03-31T19:23:25.981Z,10.01
2023-03-31T19:25:56.066Z,9.78
2023-03-31T19:28:27.585Z,9.83
2023-03-31T19:30:57.915Z,10.12
2023-03-31T19:33:27.764Z,9.97
2023-03-31T19:35:58.025Z,10.05
2023-03-31T19:38:32.084Z,9.77
2023-03-31T19:41:04.093Z,10.13
2023-03-31T19:43:34.258Z,9.87
2023-03-31T19:46:06.210Z,9.58
2023-03-31T19:48:38.160Z,9.70
2023-03-31T19:51:11.475Z,9.79
2023-03-31T19:53:42.282Z,9.87
2023-03-31T19:56:12.908Z,9.64
2023-03-31T19:58:47.188Z,9.92
2023-03-31T20:01:18.503Z,9.94
2023-03-31T20:03:52.729Z,9.53
2023-03-31T20:06:29.290Z,9.96
2023-03-31T20:09:03.526Z,10.07
2023-03-31T20:11:33.554Z,10.22
2023-03-31T20:14:03.337Z,10.05
2023-03-31T20:16:34.764Z,9.93
2023-03-31T20:19:06.444Z,9.59
2023-03-31T20:21:39.075Z,9.61
2023-03-31T20:24:15.744Z,9.83
2023-03-31T20:26:47.809Z,9.77
2023-03-31T20:29:16.917Z,10.09
2023-03-31T20:31:46.201Z,9.87
2023-03-31T20:34:25.085Z,10.36
2023-03-31T20:36:54.234Z,10.36
2023-03-31T20:39:25.087Z,9.81
2023-03-31T20:41:55.285Z,9.99
2023-03-31T20:44:26.354Z,10.23
2023-03-31T20:47:00.620Z,10.18
2023-03-31T20:49:30.521Z,10.03
2023-03-31T20:52:00.437Z,9.83
2023-03-31T20:54:34.649Z,10.31
2023-03-31T20:57:05.900Z,10.09
2023-03-31T20:59:35.315Z,9.91
2023-03-31T21:02:04.790Z,10.16
2023-03-31T21:04:34.293Z,10.18
2023-03-31T21:07:03.677Z,10.33
2023-03-31T21:09:43.464Z,9.28
2023-03-31T21:12:12.893Z,9.93
2023-03-31T21:14:41.870Z,9.71
2023-03-31T21:17:11.021Z,9.93
2023-03-31T21:19:41.985Z,9.65
2023-03-31T21:22:11.345Z,9.87
2023-03-31T21:24:44.853Z,10.12
2023-03-31T21:27:14.014Z,9.81
2023-03-31T21:29:43.717Z,9.49
2023-03-31T21:32:13.530Z,9.64
2023-03-31T21:34:42.931Z,9.32
2023-03-31T21:37:12.314Z,9.47
2023-03-31T21:39:41.541Z,9.49
2023-03-31T21:42:12.466Z,9.39
2023-03-31T21:44:42.488Z,9.31
2023-03-31T21:47:12.399Z,9.40
2023-03-31T21:49:43.357Z,9.28
2023-03-31T21:52:15.607Z,9.25
2023-03-31T21:54:45.801Z,9.43
2023-03-31T21:57:18.965Z,9.37
2023-03-31T21:59:48.171Z,9.20
2023-03-31T22:02:17.472Z,9.26
2023-03-31T22:04:46.975Z,9.24
2023-03-31T22:07:16.732Z,9.25
2023-03-31T22:09:45.961Z,9.06
2023-03-31T22:12:17.693Z,9.49
2023-03-31T22:14:47.122Z,9.45
2023-03-31T22:17:18.560Z,9.63
2023-03-31T22:19:51.440Z,9.45
2023-03-31T22:22:21.068Z,9.30
2023-03-31T22:24:50.467Z,9.33
2023-03-31T22:27:21.076Z,9.27
2023-03-31T22:29:57.959Z,9.17
2023-03-31T22:32:27.279Z,9.50
2023-03-31T22:34:56.429Z,9.44
2023-03-31T22:37:28.077Z,9.52
2023-03-31T22:39:59.741Z,9.34
2023-03-31T22:42:30.407Z,9.31
2023-03-31T22:45:03.013Z,9.48
2023-03-31T22:47:55.685Z,9.21
2023-03-31T22:50:26.179Z,9.22
2023-03-31T22:52:55.746Z,9.13
2023-03-31T22:55:25.391Z,8.94
2023-03-31T22:57:57.115Z,9.60
2023-03-31T23:00:30.734Z,9.44
2023-03-31T23:03:01.459Z,9.26
2023-03-31T23:05:33.404Z,9.10
2023-03-31T23:08:03.080Z,9.46
2023-03-31T23:10:32.279Z,9.28
2023-03-31T23:13:03.836Z,8.99
2023-03-31T23:15:40.979Z,9.11
2023-03-31T23:18:10.624Z,9.32
2023-03-31T23:20:42.837Z,9.02
2023-03-31T23:23:12.129Z,9.05
2023-03-31T23:25:41.175Z,8.92
2023-03-31T23:28:12.070Z,9.48
2023-03-31T23:30:41.367Z,9.27
2023-03-31T23:33:10.681Z,9.06
2023-03-31T23:35:44.133Z,9.48
2023-03-31T23:38:14.379Z,9.37
2023-03-31T23:40:44.821Z,9.23
2023-03-31T23:43:16.583Z,9.33
2023-03-31T23:45:50.435Z,9.03
2023-03-31T23:48:23.367Z,8.55
2023-03-31T23:50:52.482Z,9.51
2023-03-31T23:53:28.787Z,9.42
2023-03-31T23:55:59.958Z,9.23
2023-03-31T23:58:32.698Z,9.54
